createdAt,value
2018-08-06T00:00:28.255Z,22.19
2018-08-06T00:02:56.863Z,21.88
2018-08-06T00:05:25.409Z,22.38
2018-08-06T00:07:53.890Z,22.41
2018-08-06T00:10:24.046Z,22.33
2018-08-06T00:12:52.641Z,22.09
2018-08-06T00:15:21.243Z,22.30
2018-08-06T00:17:49.739Z,21.87
2018-08-06T00:20:18.314Z,21.86
2018-08-06T00:22:46.710Z,21.42
2018-08-06T00:25:16.123Z,21.91
2018-08-06T00:27:44.890Z,21.39
2018-08-06T00:30:14.711Z,21.40
2018-08-06T00:32:44.503Z,21.04
2018-08-06T00:35:13.487Z,20.93
2018-08-06T00:37:41.895Z,20.85
2018-08-06T00:40:14.390Z,21.19
2018-08-06T00:42:43.595Z,21.04
2018-08-06T00:45:15.290Z,20.53
2018-08-06T00:47:44.040Z,20.81
2018-08-06T00:50:12.903Z,20.85
2018-08-06T00:52:41.438Z,20.66
2018-08-06T00:55:12.219Z,20.97
2018-08-06T00:57:40.904Z,20.41
2018-08-06T01:00:12.244Z,20.55
2018-08-06T01:02:40.867Z,20.37
2018-08-06T01:05:10.959Z,20.31
2018-08-06T01:07:40.071Z,20.16
2018-08-06T01:10:10.426Z,19.74
2018-08-06T01:12:40.024Z,19.90
2018-08-06T01:15:09.772Z,20.11
2018-08-06T01:17:38.191Z,20.27
2018-08-06T01:20:08.595Z,20.02
2018-08-06T01:22:37.008Z,19.98
2018-08-06T01:25:05.986Z,19.84
2018-08-06T01:27:35.235Z,19.79
2018-08-06T01:30:04.211Z,19.69
2018-08-06T01:32:32.624Z,19.45
2018-08-06T01:35:01.343Z,19.31
2018-08-06T01:37:29.851Z,19.48
2018-08-06T01:39:58.234Z,19.29
2018-08-06T01:42:27.015Z,19.45
2018-08-06T01:44:55.490Z,19.36
2018-08-06T01:47:23.867Z,19.37
2018-08-06T01:49:52.355Z,19.31
2018-08-06T01:52:20.751Z,19.19
2018-08-06T01:54:49.199Z,19.19
2018-08-06T01:57:17.732Z,18.63
2018-08-06T01:59:46.311Z,18.65
2018-08-06T02:02:14.903Z,18.80
2018-08-06T02:04:43.339Z,19.04
2018-08-06T02:07:11.828Z,18.63
2018-08-06T02:09:40.258Z,18.90
2018-08-06T02:12:09.058Z,18.66
2018-08-06T02:14:37.715Z,18.91
2018-08-06T02:17:06.291Z,18.86
2018-08-06T02:19:34.822Z,18.63
2018-08-06T02:22:03.375Z,18.71
2018-08-06T02:24:31.905Z,18.64
2018-08-06T02:27:00.397Z,18.64
2018-08-06T02:29:28.971Z,18.52
2018-08-06T02:31:57.599Z,18.38
2018-08-06T02:34:26.075Z,17.80
2018-08-06T02:36:54.543Z,18.18
2018-08-06T02:39:23.035Z,18.07
2018-08-06T02:41:51.699Z,18.08
2018-08-06T02:44:20.155Z,18.25
2018-08-06T02:46:48.655Z,18.49
2018-08-06T02:49:17.151Z,18.15
2018-08-06T02:51:45.630Z,18.08
2018-08-06T02:54:14.101Z,17.99
2018-08-06T02:56:42.890Z,17.88
2018-08-06T02:59:11.379Z,18.03
2018-08-06T03:01:39.875Z,17.79
2018-08-06T03:04:08.854Z,17.97
2018-08-06T03:06:37.391Z,17.39
2018-08-06T03:09:09.239Z,18.13
2018-08-06T03:11:37.890Z,17.56
2018-08-06T03:14:06.451Z,17.63
2018-08-06T03:16:35.116Z,17.81
2018-08-06T03:19:03.615Z,17.75
2018-08-06T03:21:32.129Z,17.37
2018-08-06T03:24:00.992Z,17.69
2018-08-06T03:26:29.543Z,17.61
2018-08-06T03:28:58.040Z,17.36
2018-08-06T03:31:26.746Z,17.68
2018-08-06T03:33:55.359Z,17.62
2018-08-06T03:36:23.855Z,17.70
2018-08-06T03:38:52.590Z,17.56
2018-08-06T03:41:21.028Z,17.38
2018-08-06T03:43:49.496Z,17.31
2018-08-06T03:46:18.179Z,17.29
2018-08-06T03:48:46.691Z,17.33
2018-08-06T03:51:15.139Z,17.24
2018-08-06T03:53:43.967Z,17.34
2018-08-06T03:56:12.398Z,17.45
2018-08-06T03:58:40.799Z,17.96
2018-08-06T04:01:09.452Z,17.98
2018-08-06T04:03:37.966Z,17.69
2018-08-06T04:06:06.447Z,17.39
2018-08-06T04:08:34.972Z,17.45
2018-08-06T04:11:03.437Z,17.24
2018-08-06T04:13:31.994Z,17.32
2018-08-06T04:16:00.526Z,17.45
2018-08-06T04:18:28.982Z,16.92
2018-08-06T04:20:57.367Z,17.25
2018-08-06T04:23:25.895Z,17.30
2018-08-06T04:25:54.555Z,17.10
2018-08-06T04:28:22.995Z,17.29
2018-08-06T04:30:51.572Z,17.65
2018-08-06T04:33:19.999Z,17.46
2018-08-06T04:35:48.550Z,17.52
2018-08-06T04:38:17.163Z,17.72
2018-08-06T04:40:45.612Z,17.78
2018-08-06T04:43:13.991Z,17.76
2018-08-06T04:45:42.555Z,17.41
2018-08-06T04:48:10.943Z,17.72
2018-08-06T04:50:39.358Z,17.79
2018-08-06T04:53:07.932Z,18.08
2018-08-06T04:55:36.451Z,18.87
2018-08-06T04:58:04.979Z,19.98
2018-08-06T05:00:33.919Z,20.54
2018-08-06T05:03:02.367Z,20.96
2018-08-06T05:05:30.883Z,21.37
2018-08-06T05:07:59.762Z,21.47
2018-08-06T05:10:28.560Z,21.33
2018-08-06T05:12:57.057Z,21.39
2018-08-06T05:15:25.523Z,21.63
2018-08-06T05:17:54.073Z,22.02
2018-08-06T05:20:22.540Z,22.54
2018-08-06T05:22:51.183Z,22.24
2018-08-06T05:25:19.623Z,22.31
2018-08-06T05:27:48.083Z,22.58
2018-08-06T05:30:16.654Z,22.50
2018-08-06T05:32:45.088Z,23.24
2018-08-06T05:35:13.637Z,23.03
2018-08-06T05:37:42.455Z,23.25
2018-08-06T05:40:11.019Z,23.32
2018-08-06T05:42:39.459Z,23.52
2018-08-06T05:45:09.264Z,23.80
2018-08-06T05:47:38.060Z,23.80
2018-08-06T05:50:09.055Z,23.96
2018-08-06T05:52:37.613Z,23.83
2018-08-06T05:55:07.206Z,24.07
2018-08-06T05:57:35.723Z,24.16
2018-08-06T06:00:05.763Z,24.04
2018-08-06T06:02:34.339Z,24.68
2018-08-06T06:05:03.054Z,24.54
2018-08-06T06:07:31.496Z,24.99
2018-08-06T06:10:00.139Z,24.91
2018-08-06T06:12:28.955Z,24.83
2018-08-06T06:14:57.359Z,24.77
2018-08-06T06:17:25.844Z,24.91
2018-08-06T06:19:54.356Z,25.03
2018-08-06T06:22:22.878Z,25.48
2018-08-06T06:24:51.328Z,25.19
2018-08-06T06:27:20.171Z,25.58
2018-08-06T06:29:48.581Z,25.39
2018-08-06T06:32:17.047Z,25.28
2018-08-06T06:34:45.761Z,25.29
2018-08-06T06:37:14.171Z,25.39
2018-08-06T06:39:42.613Z,25.60
2018-08-06T06:42:11.286Z,25.26
2018-08-06T06:44:39.847Z,25.37
2018-08-06T06:47:08.295Z,25.62
2018-08-06T06:49:36.730Z,25.76
2018-08-06T06:52:05.242Z,25.75
2018-08-06T06:54:33.822Z,26.06
2018-08-06T06:57:02.579Z,25.38
2018-08-06T06:59:31.021Z,25.74
2018-08-06T07:01:59.632Z,25.61
2018-08-06T07:04:28.473Z,25.94
2018-08-06T07:06:56.938Z,25.82
2018-08-06T07:09:25.340Z,25.86
2018-08-06T07:11:53.943Z,25.51
2018-08-06T07:14:22.491Z,25.50
2018-08-06T07:16:50.997Z,25.49
2018-08-06T07:19:19.470Z,25.16
2018-08-06T07:21:47.887Z,25.49
2018-08-06T07:24:16.539Z,25.53
2018-08-06T07:26:45.514Z,25.55
2018-08-06T07:29:13.922Z,25.69
2018-08-06T07:31:42.471Z,25.88
2018-08-06T07:34:11.082Z,26.12
2018-08-06T07:36:39.772Z,26.35
2018-08-06T07:39:10.300Z,25.99
2018-08-06T07:41:38.826Z,26.39
2018-08-06T07:44:07.387Z,26.44
2018-08-06T07:46:36.643Z,26.11
2018-08-06T07:49:05.383Z,26.34
2018-08-06T07:51:33.895Z,26.90
2018-08-06T07:54:02.435Z,26.62
2018-08-06T07:56:30.915Z,26.51
2018-08-06T07:58:59.403Z,26.94
2018-08-06T08:01:27.859Z,27.02
2018-08-06T08:03:56.327Z,27.39
2018-08-06T08:06:24.867Z,27.06
2018-08-06T08:08:53.816Z,27.31
2018-08-06T08:11:22.220Z,27.12
2018-08-06T08:13:50.663Z,27.24
2018-08-06T08:16:19.155Z,27.23
2018-08-06T08:18:47.683Z,27.19
2018-08-06T08:21:16.131Z,27.60
2018-08-06T08:23:44.647Z,27.80
2018-08-06T08:26:13.165Z,27.62
2018-08-06T08:28:41.560Z,27.46
2018-08-06T08:31:10.038Z,27.75
2018-08-06T08:33:38.498Z,28.21
2018-08-06T08:36:07.311Z,28.12
2018-08-06T08:38:36.040Z,28.04
2018-08-06T08:41:04.595Z,28.25
2018-08-06T08:43:33.082Z,27.84
2018-08-06T08:46:01.791Z,28.01
2018-08-06T08:48:30.180Z,28.18
2018-08-06T08:50:58.675Z,27.92
2018-08-06T08:53:27.107Z,28.45
2018-08-06T08:55:55.647Z,28.13
2018-08-06T08:58:24.176Z,28.30
2018-08-06T09:00:52.849Z,28.32
2018-08-06T09:03:21.343Z,28.55
2018-08-06T09:05:49.960Z,28.86
2018-08-06T09:08:18.903Z,28.66
2018-08-06T09:10:47.350Z,28.69
2018-08-06T09:13:15.789Z,28.13
2018-08-06T09:15:44.392Z,28.44
2018-08-06T09:18:12.929Z,29.00
2018-08-06T09:20:41.394Z,28.60
2018-08-06T09:23:09.943Z,28.98
2018-08-06T09:25:38.537Z,28.98
2018-08-06T09:28:07.131Z,28.72
2018-08-06T09:30:35.847Z,29.12
2018-08-06T09:33:04.311Z,29.37
2018-08-06T09:35:32.771Z,29.28
2018-08-06T09:38:01.439Z,28.96
2018-08-06T09:40:30.031Z,29.53
2018-08-06T09:42:58.500Z,29.57
2018-08-06T09:45:27.221Z,29.30
2018-08-06T09:47:55.670Z,29.29
2018-08-06T09:50:24.143Z,29.29
2018-08-06T09:52:53.510Z,29.46
2018-08-06T09:55:24.722Z,29.78
2018-08-06T09:57:53.774Z,29.92
2018-08-06T10:00:28.204Z,29.95
2018-08-06T10:03:00.883Z,29.84
2018-08-06T10:05:29.693Z,29.99
2018-08-06T10:07:58.177Z,29.81
2018-08-06T10:10:26.907Z,29.98
2018-08-06T10:12:55.335Z,30.61
2018-08-06T10:15:23.771Z,30.82
2018-08-06T10:17:53.619Z,29.89
2018-08-06T10:20:23.424Z,30.17
2018-08-06T10:22:51.878Z,30.17
2018-08-06T10:25:20.375Z,29.95
2018-08-06T10:27:49.112Z,30.53
2018-08-06T10:30:18.985Z,30.36
2018-08-06T10:32:47.547Z,30.51
2018-08-06T10:35:17.559Z,30.47
2018-08-06T10:37:46.047Z,30.54
2018-08-06T10:40:20.233Z,30.32
2018-08-06T10:42:48.611Z,30.51
2018-08-06T10:45:18.151Z,30.40
2018-08-06T10:47:47.591Z,30.76
2018-08-06T10:50:16.075Z,30.68
2018-08-06T10:52:44.583Z,30.40
2018-08-06T10:55:13.531Z,30.99
2018-08-06T10:57:43.410Z,31.09
2018-08-06T11:00:16.045Z,31.46
2018-08-06T11:02:44.903Z,31.60
2018-08-06T11:05:14.483Z,31.50
2018-08-06T11:07:43.327Z,30.92
2018-08-06T11:10:13.775Z,31.27
2018-08-06T11:12:42.297Z,31.38
2018-08-06T11:15:14.440Z,31.53
2018-08-06T11:17:43.012Z,31.58
2018-08-06T11:20:12.773Z,31.75
2018-08-06T11:22:41.390Z,32.08
2018-08-06T11:25:11.447Z,32.27
2018-08-06T11:27:39.970Z,32.23
2018-08-06T11:30:10.989Z,32.55
2018-08-06T11:32:39.399Z,32.71
2018-08-06T11:35:08.749Z,32.38
2018-08-06T11:37:37.389Z,32.05
2018-08-06T11:40:07.072Z,32.29
2018-08-06T11:42:35.739Z,31.66
2018-08-06T11:45:04.489Z,31.54
2018-08-06T11:47:33.139Z,31.53
2018-08-06T11:50:01.545Z,32.09
2018-08-06T11:52:30.303Z,31.71
2018-08-06T11:54:58.795Z,32.28
2018-08-06T11:57:27.271Z,32.42
2018-08-06T11:59:55.995Z,32.94
2018-08-06T12:02:24.596Z,32.70
2018-08-06T12:04:53.106Z,33.10
2018-08-06T12:07:22.078Z,32.74
2018-08-06T12:09:50.508Z,32.62
2018-08-06T12:12:19.439Z,32.94
2018-08-06T12:14:48.131Z,32.98
2018-08-06T12:17:17.338Z,32.62
2018-08-06T12:19:45.803Z,32.66
2018-08-06T12:22:14.471Z,33.30
2018-08-06T12:24:42.886Z,33.65
2018-08-06T12:27:11.430Z,33.34
2018-08-06T12:29:40.164Z,33.65
2018-08-06T12:32:08.736Z,33.72
2018-08-06T12:34:37.136Z,33.57
2018-08-06T12:37:05.596Z,33.67
2018-08-06T12:39:34.095Z,33.74
2018-08-06T12:42:02.537Z,33.70
2018-08-06T12:44:31.104Z,33.82
2018-08-06T12:46:59.538Z,34.00
2018-08-06T12:49:27.927Z,33.77
2018-08-06T12:51:56.379Z,33.60
2018-08-06T12:54:24.819Z,33.44
2018-08-06T12:56:53.262Z,33.96
2018-08-06T12:59:21.991Z,33.99
2018-08-06T13:01:50.424Z,34.07
2018-08-06T13:04:18.938Z,34.59
2018-08-06T13:06:47.679Z,34.03
2018-08-06T13:09:16.060Z,34.54
2018-08-06T13:11:44.495Z,34.62
2018-08-06T13:14:13.363Z,34.48
2018-08-06T13:16:41.895Z,34.68
2018-08-06T13:19:10.435Z,34.80
2018-08-06T13:21:39.039Z,34.96
2018-08-06T13:24:07.575Z,34.63
2018-08-06T13:26:35.986Z,34.08
2018-08-06T13:29:04.592Z,34.06
2018-08-06T13:31:33.039Z,33.72
2018-08-06T13:34:01.479Z,34.25
2018-08-06T13:36:29.975Z,34.27
2018-08-06T13:38:58.475Z,33.82
2018-08-06T13:41:26.960Z,34.01
2018-08-06T13:43:55.487Z,34.32
2018-08-06T13:46:23.979Z,33.97
2018-08-06T13:48:52.451Z,33.68
2018-08-06T13:51:21.197Z,34.25
2018-08-06T13:53:49.759Z,33.93
2018-08-06T13:56:18.167Z,34.28
2018-08-06T13:58:46.637Z,34.58
2018-08-06T14:01:15.210Z,34.73
2018-08-06T14:03:43.686Z,34.98
2018-08-06T14:06:13.379Z,34.77
2018-08-06T14:08:41.852Z,34.83
2018-08-06T14:11:10.339Z,35.10
2018-08-06T14:13:38.743Z,35.32
2018-08-06T14:16:07.560Z,35.36
2018-08-06T14:18:36.035Z,35.25
2018-08-06T14:21:04.739Z,34.95
2018-08-06T14:23:33.177Z,35.01
2018-08-06T14:26:01.726Z,34.88
2018-08-06T14:28:30.211Z,35.14
2018-08-06T14:30:58.655Z,35.12
2018-08-06T14:33:27.147Z,35.14
2018-08-06T14:35:55.682Z,35.24
2018-08-06T14:38:24.315Z,34.96
2018-08-06T14:40:52.715Z,34.57
2018-08-06T14:43:21.287Z,34.87
2018-08-06T14:45:49.767Z,34.98
2018-08-06T14:48:18.281Z,34.71
2018-08-06T14:50:46.901Z,34.85
2018-08-06T14:53:15.363Z,35.01
2018-08-06T14:55:43.843Z,34.87
2018-08-06T14:58:12.343Z,35.07
2018-08-06T15:00:40.803Z,34.85
2018-08-06T15:03:09.295Z,34.27
2018-08-06T15:05:37.730Z,34.45
2018-08-06T15:08:06.352Z,34.57
2018-08-06T15:10:34.894Z,34.50
2018-08-06T15:13:03.631Z,34.77
2018-08-06T15:15:32.109Z,34.65
2018-08-06T15:18:00.596Z,34.73
2018-08-06T15:20:29.247Z,34.97
2018-08-06T15:22:57.644Z,34.90
2018-08-06T15:25:26.210Z,35.08
2018-08-06T15:27:54.901Z,34.50
2018-08-06T15:30:23.371Z,34.20
2018-08-06T15:32:51.783Z,34.47
2018-08-06T15:35:20.466Z,34.77
2018-08-06T15:37:48.944Z,34.69
2018-08-06T15:40:19.253Z,34.79
2018-08-06T15:42:47.902Z,34.52
2018-08-06T15:45:16.406Z,34.14
2018-08-06T15:47:45.815Z,34.26
2018-08-06T15:50:18.534Z,34.27
2018-08-06T15:52:47.196Z,34.27
2018-08-06T15:55:15.711Z,34.40
2018-08-06T15:57:44.444Z,34.28
2018-08-06T16:00:15.739Z,34.48
2018-08-06T16:02:44.692Z,34.80
2018-08-06T16:05:13.527Z,34.80
2018-08-06T16:07:41.949Z,34.42
2018-08-06T16:10:11.687Z,34.37
2018-08-06T16:12:40.175Z,34.27
2018-08-06T16:15:10.586Z,34.27
2018-08-06T16:17:40.168Z,34.28
2018-08-06T16:20:10.899Z,34.06
2018-08-06T16:22:39.708Z,33.77
2018-08-06T16:25:09.096Z,33.88
2018-08-06T16:27:37.531Z,33.92
2018-08-06T16:30:13.787Z,33.90
2018-08-06T16:32:42.604Z,33.77
2018-08-06T16:35:11.026Z,33.80
2018-08-06T16:37:39.911Z,33.73
2018-08-06T16:40:09.391Z,33.79
2018-08-06T16:42:37.802Z,33.72
2018-08-06T16:45:07.515Z,33.67
2018-08-06T16:47:36.485Z,33.45
2018-08-06T16:50:05.671Z,33.41
2018-08-06T16:52:34.243Z,33.37
2018-08-06T16:55:02.691Z,33.41
2018-08-06T16:57:31.271Z,33.38
2018-08-06T17:00:00.123Z,33.34
2018-08-06T17:02:28.911Z,33.13
2018-08-06T17:04:58.093Z,33.37
2018-08-06T17:07:26.631Z,33.33
2018-08-06T17:09:55.311Z,33.13
2018-08-06T17:12:23.688Z,32.95
2018-08-06T17:14:53.364Z,32.79
2018-08-06T17:17:21.900Z,32.88
2018-08-06T17:19:50.299Z,32.95
2018-08-06T17:22:18.784Z,33.11
2018-08-06T17:24:47.310Z,33.11
2018-08-06T17:27:15.740Z,33.07
2018-08-06T17:29:44.215Z,33.13
2018-08-06T17:32:12.902Z,32.74
2018-08-06T17:34:41.414Z,32.80
2018-08-06T17:37:10.219Z,32.86
2018-08-06T17:39:38.643Z,32.88
2018-08-06T17:42:07.063Z,32.87
2018-08-06T17:44:35.543Z,33.05
2018-08-06T17:47:04.043Z,32.92
2018-08-06T17:49:32.500Z,32.70
2018-08-06T17:52:05.472Z,32.59
2018-08-06T17:54:33.928Z,32.43
2018-08-06T17:57:02.383Z,32.36
2018-08-06T17:59:31.313Z,32.40
2018-08-06T18:01:59.723Z,32.54
2018-08-06T18:04:28.187Z,32.23
2018-08-06T18:06:56.711Z,32.06
2018-08-06T18:09:25.187Z,31.74
2018-08-06T18:11:53.912Z,32.01
2018-08-06T18:14:22.544Z,31.75
2018-08-06T18:16:51.112Z,31.23
2018-08-06T18:19:19.543Z,31.31
2018-08-06T18:21:48.219Z,31.26
2018-08-06T18:24:16.837Z,31.14
2018-08-06T18:26:45.243Z,31.32
2018-08-06T18:29:14.015Z,31.32
2018-08-06T18:31:43.082Z,31.26
2018-08-06T18:34:11.473Z,31.17
2018-08-06T18:36:39.997Z,30.99
2018-08-06T18:39:10.410Z,31.04
2018-08-06T18:41:38.884Z,30.65
2018-08-06T18:44:07.642Z,30.52
2018-08-06T18:46:36.093Z,30.63
2018-08-06T18:49:04.811Z,30.40
2018-08-06T18:51:33.296Z,30.52
2018-08-06T18:54:01.760Z,30.34
2018-08-06T18:56:30.395Z,30.28
2018-08-06T18:59:00.359Z,30.12
2018-08-06T19:01:28.883Z,29.99
2018-08-06T19:03:57.476Z,29.76
2018-08-06T19:06:26.275Z,29.77
2018-08-06T19:08:59.890Z,29.70
2018-08-06T19:11:28.999Z,29.67
2018-08-06T19:14:03.280Z,29.48
2018-08-06T19:16:32.020Z,29.72
2018-08-06T19:19:05.992Z,29.56
2018-08-06T19:21:34.740Z,29.45
2018-08-06T19:24:08.396Z,29.30
2018-08-06T19:26:37.163Z,29.17
2018-08-06T19:29:05.777Z,29.06
2018-08-06T19:31:34.733Z,29.19
2018-08-06T19:34:03.910Z,28.93
2018-08-06T19:36:37.880Z,28.76
2018-08-06T19:39:09.343Z,28.73
2018-08-06T19:41:38.649Z,28.54
2018-08-06T19:44:08.397Z,28.25
2018-08-06T19:46:37.138Z,28.15
2018-08-06T19:49:11.154Z,28.24
2018-08-06T19:51:39.916Z,28.27
2018-08-06T19:54:08.623Z,28.32
2018-08-06T19:56:37.145Z,28.15
2018-08-06T19:59:06.402Z,27.95
2018-08-06T20:01:34.967Z,27.48
2018-08-06T20:04:03.983Z,27.76
2018-08-06T20:06:33.252Z,27.74
2018-08-06T20:09:02.107Z,27.58
2018-08-06T20:11:30.803Z,27.69
2018-08-06T20:13:59.364Z,27.77
2018-08-06T20:16:27.960Z,27.34
2018-08-06T20:18:56.482Z,27.17
2018-08-06T20:21:25.184Z,27.44
2018-08-06T20:23:53.632Z,27.30
2018-08-06T20:26:22.187Z,26.78
2018-08-06T20:28:51.020Z,26.86
2018-08-06T20:31:19.601Z,27.04
2018-08-06T20:33:48.119Z,26.99
2018-08-06T20:36:17.099Z,26.86
2018-08-06T20:38:45.559Z,26.74
2018-08-06T20:41:19.679Z,26.79
2018-08-06T20:43:48.132Z,26.75
2018-08-06T20:46:19.564Z,26.65
2018-08-06T20:48:48.377Z,26.31
2018-08-06T20:51:16.902Z,26.02
2018-08-06T20:53:45.392Z,26.04
2018-08-06T20:56:13.883Z,25.75
2018-08-06T20:58:42.347Z,25.84
2018-08-06T21:01:10.752Z,25.88
2018-08-06T21:03:39.408Z,25.59
2018-08-06T21:06:07.891Z,25.55
2018-08-06T21:08:36.347Z,25.84
2018-08-06T21:11:05.130Z,25.58
2018-08-06T21:13:33.499Z,25.23
2018-08-06T21:16:01.949Z,25.31
2018-08-06T21:18:30.459Z,25.36
2018-08-06T21:20:58.956Z,25.29
2018-08-06T21:23:27.570Z,25.29
2018-08-06T21:25:56.187Z,24.95
2018-08-06T21:28:24.615Z,25.13
2018-08-06T21:30:53.090Z,24.88
2018-08-06T21:33:21.548Z,24.74
2018-08-06T21:35:49.991Z,24.71
2018-08-06T21:38:18.419Z,24.44
2018-08-06T21:40:47.312Z,24.62
2018-08-06T21:43:15.791Z,24.12
2018-08-06T21:45:44.345Z,24.08
2018-08-06T21:48:13.167Z,24.13
2018-08-06T21:50:41.718Z,24.12
2018-08-06T21:53:10.228Z,24.07
2018-08-06T21:55:38.991Z,23.99
2018-08-06T21:58:07.375Z,24.02
2018-08-06T22:00:40.305Z,23.83
2018-08-06T22:03:14.387Z,23.80
2018-08-06T22:05:43.054Z,23.79
2018-08-06T22:08:11.715Z,23.58
2018-08-06T22:10:40.363Z,23.61
2018-08-06T22:13:09.759Z,23.43
2018-08-06T22:15:38.419Z,23.15
2018-08-06T22:18:08.160Z,23.25
2018-08-06T22:20:36.611Z,23.11
2018-08-06T22:23:05.270Z,22.79
2018-08-06T22:25:33.700Z,22.79
2018-08-06T22:28:02.114Z,22.96
2018-08-06T22:30:30.615Z,23.21
2018-08-06T22:32:59.062Z,23.03
2018-08-06T22:35:27.766Z,23.00
2018-08-06T22:37:56.223Z,23.13
2018-08-06T22:40:24.710Z,23.18
2018-08-06T22:42:53.202Z,23.03
2018-08-06T22:45:21.667Z,22.69
2018-08-06T22:47:50.175Z,22.63
2018-08-06T22:50:18.835Z,22.74
2018-08-06T22:52:47.371Z,22.45
2018-08-06T22:55:15.863Z,22.37
2018-08-06T22:57:44.336Z,22.44
2018-08-06T23:00:15.719Z,22.48
2018-08-06T23:02:44.651Z,22.35
2018-08-06T23:05:14.822Z,22.46
2018-08-06T23:07:43.355Z,22.26
2018-08-06T23:10:13.541Z,22.39
2018-08-06T23:12:42.069Z,22.24
2018-08-06T23:15:13.628Z,21.97
2018-08-06T23:17:42.362Z,22.00
2018-08-06T23:20:11.072Z,21.70
2018-08-06T23:22:39.991Z,21.69
2018-08-06T23:25:08.660Z,21.64
2018-08-06T23:27:38.072Z,21.55
2018-08-06T23:30:10.180Z,21.42
2018-08-06T23:32:38.843Z,21.17
2018-08-06T23:35:08.735Z,21.32
2018-08-06T23:37:37.299Z,20.97
2018-08-06T23:40:06.683Z,21.03
2018-08-06T23:42:35.368Z,21.14
2018-08-06T23:45:04.634Z,21.08
2018-08-06T23:47:33.159Z,20.93
2018-08-06T23:50:01.677Z,20.88
2018-08-06T23:52:30.164Z,20.73
2018-08-06T23:54:58.741Z,20.81
2018-08-06T23:57:28.084Z,20.38
2018-08-06T23:59:56.820Z,20.55
